createdAt,value
2018-03-03T00:00:48.731Z,30.70
2018-03-03T00:03:17.080Z,32.07
2018-03-03T00:05:45.479Z,35.63
2018-03-03T00:08:13.102Z,32.90
2018-03-03T00:10:41.402Z,30.07
2018-03-03T00:13:10.173Z,29.50
2018-03-03T00:15:37.812Z,33.53
2018-03-03T00:18:05.397Z,31.63
2018-03-03T00:20:33.014Z,31.93
2018-03-03T00:23:01.368Z,37.63
2018-03-03T00:25:29.813Z,35.97
2018-03-03T00:27:58.881Z,34.07
2018-03-03T00:30:27.457Z,29.73
2018-03-03T00:32:56.486Z,32.27
2018-03-03T00:35:24.501Z,36.57
2018-03-03T00:37:52.154Z,33.67
2018-03-03T00:40:19.783Z,36.70
2018-03-03T00:42:51.772Z,37.30
2018-03-03T00:45:19.921Z,31.90
2018-03-03T00:47:47.516Z,40.33
2018-03-03T00:50:15.450Z,34.83
2018-03-03T00:52:44.449Z,36.60
2018-03-03T00:55:12.066Z,33.53
2018-03-03T00:57:39.686Z,37.97
2018-03-03T01:00:07.267Z,36.27
2018-03-03T01:02:34.889Z,30.60
2018-03-03T01:05:02.533Z,33.90
2018-03-03T01:07:30.114Z,33.30
2018-03-03T01:09:57.703Z,35.63
2018-03-03T01:12:25.332Z,30.67
2018-03-03T01:14:52.912Z,42.17
2018-03-03T01:17:20.487Z,38.50
2018-03-03T01:19:48.108Z,34.10
2018-03-03T01:22:15.684Z,40.80
2018-03-03T01:24:43.306Z,34.83
2018-03-03T01:27:10.896Z,34.67
2018-03-03T01:29:38.515Z,32.47
2018-03-03T01:32:06.104Z,36.07
2018-03-03T01:34:33.721Z,35.77
2018-03-03T01:37:01.298Z,36.00
2018-03-03T01:39:28.923Z,35.97
2018-03-03T01:41:56.499Z,37.97
2018-03-03T01:44:24.079Z,36.37
2018-03-03T01:46:52.472Z,34.70
2018-03-03T01:49:20.824Z,38.93
2018-03-03T01:51:48.450Z,35.87
2018-03-03T01:54:16.043Z,31.33
2018-03-03T01:56:43.778Z,37.97
2018-03-03T01:59:11.396Z,30.00
2018-03-03T02:01:39.023Z,43.13
2018-03-03T02:04:06.641Z,35.70
2018-03-03T02:06:34.271Z,39.40
2018-03-03T02:09:02.620Z,33.13
2018-03-03T02:11:30.251Z,34.53
2018-03-03T02:13:57.835Z,40.73
2018-03-03T02:16:25.419Z,35.07
2018-03-03T02:18:53.045Z,35.00
2018-03-03T02:21:20.630Z,40.20
2018-03-03T02:23:48.248Z,40.33
2018-03-03T02:26:15.858Z,39.83
2018-03-03T02:28:43.456Z,32.30
2018-03-03T02:31:11.097Z,35.80
2018-03-03T02:33:38.682Z,34.97
2018-03-03T02:36:06.289Z,33.13
2018-03-03T02:38:33.951Z,34.77
2018-03-03T02:41:01.541Z,33.30
2018-03-03T02:43:29.929Z,36.43
2018-03-03T02:45:57.574Z,39.00
2018-03-03T02:48:25.164Z,34.10
2018-03-03T02:50:52.752Z,34.77
2018-03-03T02:53:20.378Z,40.23
2018-03-03T02:55:47.962Z,38.57
2018-03-03T02:58:15.584Z,34.73
2018-03-03T03:00:45.986Z,33.27
2018-03-03T03:03:13.628Z,41.20
2018-03-03T03:05:41.225Z,33.50
2018-03-03T03:08:08.842Z,35.67
2018-03-03T03:10:36.455Z,33.43
2018-03-03T03:13:04.082Z,39.07
2018-03-03T03:15:31.663Z,35.13
2018-03-03T03:17:59.283Z,34.03
2018-03-03T03:20:26.868Z,31.40
2018-03-03T03:22:54.490Z,35.00
2018-03-03T03:25:22.080Z,33.40
2018-03-03T03:27:49.708Z,35.77
2018-03-03T03:30:17.283Z,39.93
2018-03-03T03:32:44.870Z,37.60
2018-03-03T03:35:12.518Z,40.77
2018-03-03T03:37:40.096Z,36.37
2018-03-03T03:40:07.715Z,38.37
2018-03-03T03:42:35.286Z,39.10
2018-03-03T03:45:03.675Z,35.13
2018-03-03T03:47:31.296Z,38.23
2018-03-03T03:49:58.903Z,36.80
2018-03-03T03:52:26.526Z,40.70
2018-03-03T03:54:54.100Z,34.43
2018-03-03T03:57:22.495Z,38.83
2018-03-03T03:59:50.115Z,38.70
2018-03-03T04:02:17.724Z,40.77
2018-03-03T04:04:45.332Z,45.07
2018-03-03T04:07:12.955Z,35.73
2018-03-03T04:09:40.527Z,38.03
2018-03-03T04:12:08.119Z,37.47
2018-03-03T04:14:35.739Z,41.90
2018-03-03T04:17:05.553Z,38.23
2018-03-03T04:19:33.184Z,33.57
2018-03-03T04:22:00.772Z,37.20
2018-03-03T04:24:29.882Z,37.37
2018-03-03T04:26:57.470Z,40.67
2018-03-03T04:29:25.049Z,36.83
2018-03-03T04:31:52.671Z,36.97
2018-03-03T04:34:22.732Z,41.53
2018-03-03T04:36:50.364Z,39.77
2018-03-03T04:39:17.950Z,43.13
2018-03-03T04:41:45.581Z,37.17
2018-03-03T04:44:13.168Z,38.83
2018-03-03T04:46:40.750Z,40.50
2018-03-03T04:49:08.362Z,39.17
2018-03-03T04:51:35.944Z,41.57
2018-03-03T04:54:03.555Z,42.73
2018-03-03T04:56:31.167Z,40.00
2018-03-03T04:59:05.243Z,37.90
2018-03-03T05:01:34.662Z,40.30
2018-03-03T05:07:12.363Z,37.63
2018-03-03T05:09:39.991Z,37.17
2018-03-03T05:12:07.563Z,43.97
2018-03-03T05:14:39.088Z,36.57
2018-03-03T05:17:08.590Z,35.30
2018-03-03T05:19:41.910Z,44.60
2018-03-03T05:22:15.025Z,39.23
2018-03-03T05:25:01.361Z,45.67
2018-03-03T05:27:49.635Z,38.47
2018-03-03T05:30:22.964Z,40.20
2018-03-03T05:32:55.421Z,44.57
2018-03-03T05:35:37.881Z,41.13
2018-03-03T05:38:23.161Z,41.33
2018-03-03T05:40:56.340Z,45.90
2018-03-03T05:43:41.812Z,53.37
2018-03-03T05:46:15.882Z,48.57
2018-03-03T05:48:49.954Z,37.80
2018-03-03T05:51:38.460Z,39.80
2018-03-03T05:54:22.779Z,42.73
2018-03-03T05:57:06.099Z,43.97
2018-03-03T05:59:39.319Z,41.53
2018-03-03T06:02:10.740Z,44.80
2018-03-03T06:04:40.828Z,44.73
2018-03-03T06:07:14.052Z,39.83
2018-03-03T06:09:44.135Z,44.40
2018-03-03T06:12:11.721Z,42.00
2018-03-03T06:14:39.338Z,47.80
2018-03-03T06:17:06.924Z,42.97
2018-03-03T06:19:34.562Z,40.10
2018-03-03T06:22:02.138Z,46.13
2018-03-03T06:24:29.719Z,39.23
2018-03-03T06:26:57.331Z,43.47
2018-03-03T06:29:24.974Z,47.20
2018-03-03T06:31:52.598Z,42.47
2018-03-03T06:34:20.215Z,41.57
2018-03-03T06:36:47.801Z,47.37
2018-03-03T06:39:15.416Z,45.27
2018-03-03T06:41:42.996Z,45.37
2018-03-03T06:44:10.624Z,48.57
2018-03-03T06:46:38.480Z,53.27
2018-03-03T06:49:06.060Z,48.60
2018-03-03T06:51:33.687Z,48.83
2018-03-03T06:54:01.315Z,46.00
2018-03-03T06:56:29.669Z,45.23
2018-03-03T06:58:57.256Z,41.27
2018-03-03T07:01:24.874Z,45.97
2018-03-03T07:03:52.491Z,48.80
2018-03-03T07:06:20.077Z,42.97
2018-03-03T07:08:47.708Z,45.50
2018-03-03T07:11:15.343Z,44.53
2018-03-03T07:13:42.922Z,52.67
2018-03-03T07:16:10.564Z,49.03
2018-03-03T07:18:38.182Z,48.33
2018-03-03T07:21:05.772Z,52.03
2018-03-03T07:23:33.400Z,44.20
2018-03-03T07:26:00.981Z,51.80
2018-03-03T07:28:28.609Z,42.30
2018-03-03T07:30:56.200Z,46.07
2018-03-03T07:33:23.787Z,53.40
2018-03-03T07:35:51.415Z,43.37
2018-03-03T07:38:18.991Z,42.47
2018-03-03T07:40:46.606Z,48.23
2018-03-03T07:43:14.192Z,44.43
2018-03-03T07:45:41.812Z,50.70
2018-03-03T07:48:09.396Z,43.67
2018-03-03T07:50:37.777Z,44.37
2018-03-03T07:53:06.175Z,42.00
2018-03-03T07:55:33.770Z,50.93
2018-03-03T07:58:01.387Z,49.30
2018-03-03T08:00:28.978Z,45.57
2018-03-03T08:02:56.597Z,54.43
2018-03-03T08:05:24.955Z,52.00
2018-03-03T08:07:52.596Z,45.90
2018-03-03T08:10:20.187Z,49.50
2018-03-03T08:12:47.841Z,49.20
2018-03-03T08:15:15.395Z,46.07
2018-03-03T08:17:43.029Z,52.50
2018-03-03T08:20:10.645Z,54.63
2018-03-03T08:22:38.995Z,46.47
2018-03-03T08:25:06.608Z,50.90
2018-03-03T08:27:34.221Z,50.67
2018-03-03T08:30:01.800Z,54.13
2018-03-03T08:32:29.431Z,50.03
2018-03-03T08:34:57.052Z,49.07
2018-03-03T08:37:25.022Z,53.50
2018-03-03T08:39:52.640Z,51.53
2018-03-03T08:42:20.219Z,50.27
2018-03-03T08:44:48.601Z,51.27
2018-03-03T08:47:16.982Z,50.07
2018-03-03T08:49:45.322Z,47.93
2018-03-03T08:52:12.943Z,53.77
2018-03-03T08:54:40.570Z,49.10
2018-03-03T08:57:08.148Z,52.63
2018-03-03T08:59:35.728Z,42.43
2018-03-03T09:02:03.343Z,52.33
2018-03-03T09:04:33.980Z,50.33
2018-03-03T09:07:01.608Z,49.50
2018-03-03T09:09:29.195Z,47.97
2018-03-03T09:11:56.784Z,48.87
2018-03-03T09:14:25.168Z,54.00
2018-03-03T09:16:53.563Z,51.90
2018-03-03T09:19:21.173Z,45.43
2018-03-03T09:21:48.799Z,52.30
2018-03-03T09:24:16.390Z,46.03
2018-03-03T09:26:44.009Z,49.23
2018-03-03T09:29:11.588Z,45.23
2018-03-03T09:31:39.233Z,50.77
2018-03-03T09:34:06.825Z,47.83
2018-03-03T09:36:34.417Z,49.60
2018-03-03T09:39:02.036Z,52.40
2018-03-03T09:41:29.675Z,52.30
2018-03-03T09:43:57.254Z,50.23
2018-03-03T09:46:24.846Z,48.43
2018-03-03T09:48:52.477Z,44.83
2018-03-03T09:51:20.296Z,55.97
2018-03-03T09:53:47.930Z,50.87
2018-03-03T09:56:15.523Z,52.97
2018-03-03T09:58:43.161Z,52.87
2018-03-03T10:01:10.751Z,47.73
2018-03-03T10:03:39.104Z,53.53
2018-03-03T10:06:06.731Z,51.10
2018-03-03T10:08:34.320Z,53.53
2018-03-03T10:11:01.947Z,56.50
2018-03-03T10:13:29.536Z,51.77
2018-03-03T10:15:57.678Z,53.40
2018-03-03T10:18:26.079Z,53.83
2018-03-03T10:20:54.444Z,51.47
2018-03-03T10:23:22.032Z,51.37
2018-03-03T10:25:49.655Z,49.20
2018-03-03T10:28:17.235Z,58.53
2018-03-03T10:30:44.859Z,54.03
2018-03-03T10:33:12.480Z,50.20
2018-03-03T10:35:40.066Z,56.93
2018-03-03T10:38:07.701Z,54.10
2018-03-03T10:40:35.279Z,55.23
2018-03-03T10:43:02.859Z,52.10
2018-03-03T10:45:31.262Z,48.17
2018-03-03T10:47:58.848Z,53.60
2018-03-03T10:50:26.466Z,57.53
2018-03-03T10:52:54.856Z,53.10
2018-03-03T10:55:22.488Z,54.60
2018-03-03T10:57:50.072Z,50.53
2018-03-03T11:00:24.008Z,56.83
2018-03-03T11:02:51.620Z,55.70
2018-03-03T11:05:19.257Z,49.53
2018-03-03T11:07:46.868Z,47.93
2018-03-03T11:10:14.481Z,54.47
2018-03-03T11:12:42.103Z,50.07
2018-03-03T11:15:09.736Z,46.70
2018-03-03T11:17:37.311Z,48.93
2018-03-03T11:20:04.883Z,53.23
2018-03-03T11:22:32.503Z,53.47
2018-03-03T11:25:00.080Z,52.63
2018-03-03T11:27:27.701Z,50.77
2018-03-03T11:29:55.270Z,52.73
2018-03-03T11:32:22.891Z,49.60
2018-03-03T11:34:50.467Z,48.73
2018-03-03T11:37:18.046Z,60.63
2018-03-03T11:39:45.661Z,49.53
2018-03-03T11:42:13.236Z,50.10
2018-03-03T11:44:40.852Z,56.37
2018-03-03T11:47:08.431Z,55.33
2018-03-03T11:49:37.071Z,49.93
2018-03-03T11:52:04.643Z,55.97
2018-03-03T11:54:32.277Z,48.00
2018-03-03T11:56:59.852Z,52.57
2018-03-03T11:59:27.441Z,47.20
2018-03-03T12:01:55.091Z,44.87
2018-03-03T12:04:22.974Z,47.47
2018-03-03T12:06:50.916Z,52.50
2018-03-03T12:09:18.615Z,52.40
2018-03-03T12:11:46.190Z,46.10
2018-03-03T12:14:13.773Z,46.13
2018-03-03T12:16:41.389Z,41.87
2018-03-03T12:19:09.095Z,45.27
2018-03-03T12:21:36.720Z,46.33
2018-03-03T12:24:04.296Z,54.17
2018-03-03T12:26:32.684Z,42.30
2018-03-03T12:29:01.032Z,43.93
2018-03-03T12:31:30.412Z,46.47
2018-03-03T12:33:58.089Z,42.87
2018-03-03T12:36:25.667Z,48.23
2018-03-03T12:38:53.293Z,46.50
2018-03-03T12:41:20.866Z,44.53
2018-03-03T12:43:48.480Z,48.43
2018-03-03T12:46:16.100Z,42.10
2018-03-03T12:48:43.688Z,41.67
2018-03-03T12:51:11.321Z,41.10
2018-03-03T12:53:38.923Z,41.00
2018-03-03T12:56:06.508Z,45.40
2018-03-03T12:58:34.254Z,36.43
2018-03-03T13:01:01.852Z,43.23
2018-03-03T13:03:29.467Z,41.60
2018-03-03T13:05:57.861Z,39.70
2018-03-03T13:08:25.451Z,39.63
2018-03-03T13:10:53.075Z,39.70
2018-03-03T13:13:21.418Z,39.63
2018-03-03T13:15:49.015Z,45.27
2018-03-03T13:18:16.662Z,36.27
2018-03-03T13:20:44.276Z,36.17
2018-03-03T13:23:11.910Z,39.60
2018-03-03T13:25:39.533Z,38.80
2018-03-03T13:28:07.166Z,35.90
2018-03-03T13:30:34.794Z,36.17
2018-03-03T13:33:03.004Z,40.97
2018-03-03T13:35:30.636Z,33.83
2018-03-03T13:37:58.261Z,37.10
2018-03-03T13:40:25.838Z,39.00
2018-03-03T13:42:53.755Z,33.23
2018-03-03T13:45:21.375Z,34.87
2018-03-03T13:47:48.984Z,36.73
2018-03-03T13:50:16.595Z,31.23
2018-03-03T13:52:44.216Z,32.93
2018-03-03T13:55:11.846Z,34.67
2018-03-03T13:57:39.792Z,37.50
2018-03-03T14:00:07.699Z,33.93
2018-03-03T14:02:35.706Z,35.73
2018-03-03T14:05:03.699Z,33.10
2018-03-03T14:07:31.659Z,32.77
2018-03-03T14:09:59.637Z,31.93
2018-03-03T14:12:27.570Z,30.10
2018-03-03T14:14:56.295Z,32.00
2018-03-03T14:17:24.217Z,31.60
2018-03-03T14:19:52.378Z,31.07
2018-03-03T14:22:21.542Z,29.90
2018-03-03T14:24:50.601Z,33.23
2018-03-03T14:27:23.624Z,33.27
2018-03-03T14:29:52.379Z,31.50
2018-03-03T14:32:20.659Z,29.03
2018-03-03T14:34:48.696Z,29.97
2018-03-03T14:37:16.774Z,28.70
2018-03-03T14:39:44.812Z,30.63
2018-03-03T14:42:16.401Z,31.60
2018-03-03T14:44:46.258Z,28.50
2018-03-03T14:47:14.694Z,30.33
2018-03-03T14:49:43.389Z,33.37
2018-03-03T14:52:11.655Z,30.83
2018-03-03T14:54:39.720Z,31.47
2018-03-03T14:57:07.992Z,34.80
2018-03-03T14:59:36.098Z,33.70
2018-03-03T15:02:04.058Z,32.33
2018-03-03T15:04:32.325Z,30.27
2018-03-03T15:07:01.094Z,32.93
2018-03-03T15:09:29.203Z,29.70
2018-03-03T15:11:57.135Z,31.40
2018-03-03T15:14:25.288Z,32.43
2018-03-03T15:16:53.745Z,27.57
2018-03-03T15:19:21.398Z,33.37
2018-03-03T15:21:49.020Z,36.20
2018-03-03T15:24:16.627Z,31.20
2018-03-03T15:26:44.246Z,32.67
2018-03-03T15:29:11.827Z,30.80
2018-03-03T15:31:39.492Z,29.30
2018-03-03T15:34:07.854Z,27.27
2018-03-03T15:36:35.452Z,32.93
2018-03-03T15:39:03.063Z,29.03
2018-03-03T15:41:30.649Z,34.00
2018-03-03T15:43:58.258Z,37.30
2018-03-03T15:46:25.840Z,34.60
2018-03-03T15:48:53.457Z,31.70
2018-03-03T15:51:21.043Z,30.17
2018-03-03T15:53:48.666Z,30.37
2018-03-03T15:56:17.881Z,31.83
2018-03-03T15:58:50.264Z,31.20
2018-03-03T16:01:18.987Z,38.10
2018-03-03T16:03:49.200Z,32.00
2018-03-03T16:06:19.122Z,33.70
2018-03-03T16:08:48.180Z,35.97
2018-03-03T16:11:17.244Z,36.20
2018-03-03T16:13:46.188Z,32.60
2018-03-03T16:16:16.322Z,29.27
2018-03-03T16:18:47.918Z,35.80
2018-03-03T16:21:17.735Z,28.67
2018-03-03T16:23:50.900Z,32.10
2018-03-03T16:26:19.100Z,32.93
2018-03-03T16:28:55.861Z,31.87
2018-03-03T16:31:26.153Z,31.30
2018-03-03T16:33:59.738Z,28.40
2018-03-03T16:36:29.985Z,31.37
2018-03-03T16:39:01.504Z,28.97
2018-03-03T16:41:31.590Z,30.80
2018-03-03T16:44:00.492Z,31.43
2018-03-03T16:46:28.410Z,34.43
2018-03-03T16:48:56.584Z,34.07
2018-03-03T16:51:25.670Z,35.93
2018-03-03T16:53:55.413Z,33.53
2018-03-03T16:56:23.801Z,34.87
2018-03-03T16:58:54.813Z,36.00
2018-03-03T17:01:24.079Z,39.43
2018-03-03T17:03:54.266Z,31.07
2018-03-03T17:06:24.545Z,39.30
2018-03-03T17:08:54.618Z,39.23
2018-03-03T17:11:24.738Z,35.33
2018-03-03T17:13:53.403Z,35.93
2018-03-03T17:16:23.791Z,34.03
2018-03-03T17:18:53.263Z,36.87
2018-03-03T17:21:22.656Z,35.20
2018-03-03T17:23:51.100Z,32.87
2018-03-03T17:26:19.493Z,35.30
2018-03-03T17:28:47.072Z,35.57
2018-03-03T17:31:14.677Z,33.17
2018-03-03T17:33:42.261Z,34.63
2018-03-03T17:36:09.892Z,32.07
2018-03-03T17:38:37.463Z,33.90
2018-03-03T17:41:05.048Z,31.73
2018-03-03T17:43:32.674Z,32.60
2018-03-03T17:46:00.310Z,34.63
2018-03-03T17:48:27.888Z,36.53
2018-03-03T17:50:55.463Z,31.70
2018-03-03T17:53:23.078Z,34.10
2018-03-03T17:55:50.661Z,29.57
2018-03-03T17:58:18.342Z,33.63
2018-03-03T18:00:45.929Z,32.57
2018-03-03T18:03:13.549Z,31.83
2018-03-03T18:05:41.122Z,31.27
2018-03-03T18:08:08.740Z,35.27
2018-03-03T18:10:36.370Z,41.63
2018-03-03T18:13:04.000Z,39.43
2018-03-03T18:15:31.582Z,32.43
2018-03-03T18:17:59.199Z,34.70
2018-03-03T18:20:26.811Z,33.00
2018-03-03T18:22:54.439Z,29.73
2018-03-03T18:25:22.911Z,33.03
2018-03-03T18:27:50.851Z,34.07
2018-03-03T18:30:18.494Z,34.13
2018-03-03T18:32:46.116Z,32.30
2018-03-03T18:35:13.741Z,32.17
2018-03-03T18:37:41.362Z,34.17
2018-03-03T18:40:08.936Z,36.27
2018-03-03T18:42:37.075Z,31.83
2018-03-03T18:45:05.401Z,34.03
2018-03-03T18:47:33.692Z,33.10
2018-03-03T18:50:01.729Z,30.03
2018-03-03T18:52:29.451Z,32.63
2018-03-03T18:54:57.231Z,30.63
2018-03-03T18:57:25.983Z,33.40
2018-03-03T18:59:56.002Z,33.20
2018-03-03T19:02:23.683Z,36.27
2018-03-03T19:04:51.296Z,34.53
2018-03-03T19:07:18.883Z,37.03
2018-03-03T19:09:46.508Z,37.93
2018-03-03T19:12:14.087Z,39.93
2018-03-03T19:17:35.005Z,35.03
2018-03-03T19:20:02.587Z,38.47
2018-03-03T19:22:30.200Z,39.40
2018-03-03T19:24:57.819Z,38.40
2018-03-03T19:27:25.395Z,31.13
2018-03-03T19:29:53.352Z,34.67
2018-03-03T19:32:20.932Z,35.13
2018-03-03T19:34:48.550Z,34.67
2018-03-03T19:37:16.177Z,39.10
2018-03-03T19:39:43.755Z,37.97
2018-03-03T19:42:11.335Z,39.03
2018-03-03T19:44:39.185Z,32.40
2018-03-03T19:47:07.174Z,40.40
2018-03-03T19:49:34.763Z,36.33
2018-03-03T19:52:02.388Z,37.57
2018-03-03T19:54:30.618Z,35.57
2018-03-03T19:57:01.212Z,39.67
2018-03-03T19:59:28.882Z,38.30
2018-03-03T20:01:57.271Z,37.50
2018-03-03T20:04:24.849Z,34.00
2018-03-03T20:06:52.463Z,37.73
2018-03-03T20:09:20.029Z,35.37
2018-03-03T20:14:48.711Z,32.93
2018-03-03T20:17:17.120Z,45.37
2018-03-03T20:20:00.122Z,44.20
2018-03-03T20:22:27.695Z,42.20
2018-03-03T20:24:55.297Z,39.50
2018-03-03T20:27:22.904Z,37.37
2018-03-03T20:29:50.465Z,45.47
2018-03-03T20:32:18.704Z,37.43
2018-03-03T20:34:47.297Z,31.13
2018-03-03T20:37:14.897Z,36.93
2018-03-03T20:39:42.502Z,35.03
2018-03-03T20:42:10.066Z,42.83
2018-03-03T20:44:37.674Z,41.60
2018-03-03T20:47:05.267Z,36.20
2018-03-03T20:49:32.839Z,32.77
2018-03-03T20:52:00.450Z,36.87
2018-03-03T20:54:28.015Z,33.30
2018-03-03T20:56:55.622Z,34.20
2018-03-03T20:59:23.230Z,36.17
2018-03-03T21:01:50.837Z,39.50
2018-03-03T21:04:18.449Z,38.37
2018-03-03T21:06:46.020Z,38.33
2018-03-03T21:09:13.629Z,37.13
2018-03-03T21:11:46.909Z,30.00
2018-03-03T21:14:14.536Z,35.93
2018-03-03T21:16:42.105Z,38.33
2018-03-03T21:19:09.713Z,37.33
2018-03-03T21:21:37.273Z,36.37
2018-03-03T21:24:04.849Z,41.17
2018-03-03T21:26:32.483Z,40.43
2018-03-03T21:29:00.060Z,36.63
2018-03-03T21:31:27.627Z,33.20
2018-03-03T21:33:55.240Z,36.43
2018-03-03T21:36:23.580Z,34.17
2018-03-03T21:41:43.710Z,39.93
2018-03-03T21:44:11.279Z,36.27
2018-03-03T21:46:38.910Z,35.03
2018-03-03T21:49:06.491Z,36.03
2018-03-03T21:51:34.109Z,30.70
2018-03-03T21:54:01.731Z,34.33
2018-03-03T21:56:29.339Z,28.23
2018-03-03T21:58:56.927Z,29.93
2018-03-03T22:01:24.540Z,34.00
2018-03-03T22:03:52.158Z,30.57
2018-03-03T22:06:19.886Z,28.13
2018-03-03T22:08:47.506Z,28.57
2018-03-03T22:11:15.122Z,33.30
2018-03-03T22:13:42.697Z,31.40
2018-03-03T22:16:10.302Z,29.33
2018-03-03T22:18:37.926Z,30.20
2018-03-03T22:21:05.504Z,31.57
2018-03-03T22:23:33.137Z,30.43
2018-03-03T22:26:00.710Z,29.43
2018-03-03T22:28:28.291Z,29.73
2018-03-03T22:30:55.903Z,30.07
2018-03-03T22:33:23.510Z,30.53
2018-03-03T22:35:51.086Z,31.80
2018-03-03T22:38:18.699Z,27.60
2018-03-03T22:40:46.279Z,31.17
2018-03-03T22:43:13.887Z,31.47
2018-03-03T22:45:41.509Z,29.47
2018-03-03T22:48:09.086Z,29.30
2018-03-03T22:50:37.471Z,31.43
2018-03-03T22:53:06.201Z,32.77
2018-03-03T22:55:34.215Z,30.80
2018-03-03T22:58:10.894Z,30.07
2018-03-03T23:00:39.296Z,32.87
2018-03-03T23:03:06.871Z,29.07
2018-03-03T23:05:35.074Z,32.40
2018-03-03T23:08:03.584Z,32.20
2018-03-03T23:10:31.923Z,34.17
2018-03-03T23:12:59.512Z,38.80
2018-03-03T23:15:27.111Z,33.13
2018-03-03T23:17:54.724Z,30.73
2018-03-03T23:20:23.339Z,33.23
2018-03-03T23:22:50.924Z,30.37
2018-03-03T23:25:18.539Z,30.50
2018-03-03T23:27:46.115Z,31.43
2018-03-03T23:30:13.731Z,33.07
2018-03-03T23:32:43.219Z,32.57
2018-03-03T23:35:10.804Z,30.57
2018-03-03T23:37:38.436Z,32.67
2018-03-03T23:40:06.024Z,30.10
2018-03-03T23:42:36.148Z,28.30
2018-03-03T23:45:03.793Z,28.27
2018-03-03T23:47:31.371Z,30.90
2018-03-03T23:49:59.324Z,33.33
2018-03-03T23:52:27.019Z,29.83
2018-03-03T23:54:54.911Z,29.23
2018-03-03T23:57:24.094Z,27.50
2018-03-03T23:59:51.728Z,32.23
